createdAt,value
2022-09-12T00:01:51.369Z,72.72
2022-09-12T00:04:22.186Z,72.97
2022-09-12T00:06:51.255Z,72.82
2022-09-12T00:09:20.328Z,73.03
2022-09-12T00:11:49.656Z,72.88
2022-09-12T00:14:20.643Z,73.17
2022-09-12T00:16:49.767Z,72.76
2022-09-12T00:19:19.447Z,72.77
2022-09-12T00:21:49.897Z,72.95
2022-09-12T00:24:19.391Z,72.73
2022-09-12T00:26:48.892Z,72.64
2022-09-12T00:29:19.582Z,72.70
2022-09-12T00:31:49.372Z,72.98
2022-09-12T00:34:18.443Z,72.47
2022-09-12T00:36:48.943Z,72.50
2022-09-12T00:39:19.279Z,72.87
2022-09-12T00:41:48.407Z,72.78
2022-09-12T00:44:49.929Z,72.37
2022-09-12T00:47:23.432Z,73.02
2022-09-12T00:49:57.592Z,72.83
2022-09-12T00:52:35.343Z,73.28
2022-09-12T00:55:09.107Z,72.82
2022-09-12T00:57:43.040Z,72.75
2022-09-12T01:00:17.055Z,73.13
2022-09-12T01:02:50.220Z,73.17
2022-09-12T01:05:19.768Z,73.07
2022-09-12T01:07:51.679Z,73.14
2022-09-12T01:10:21.454Z,73.00
2022-09-12T01:12:51.301Z,73.43
2022-09-12T01:15:20.675Z,72.92
2022-09-12T01:18:05.863Z,73.52
2022-09-12T01:20:47.812Z,73.20
2022-09-12T01:23:53.012Z,73.66
2022-09-12T01:26:58.775Z,73.19
2022-09-12T01:29:53.634Z,73.19
2022-09-12T01:32:32.467Z,73.65
2022-09-12T01:35:08.577Z,73.32
2022-09-12T01:37:44.320Z,73.76
2022-09-12T01:40:22.440Z,73.91
2022-09-12T01:43:04.256Z,73.77
2022-09-12T01:45:40.245Z,73.47
2022-09-12T01:48:19.703Z,73.83
2022-09-12T01:50:54.173Z,73.64
2022-09-12T01:53:28.444Z,74.12
2022-09-12T01:56:01.488Z,73.77
2022-09-12T01:58:39.325Z,74.02
2022-09-12T02:01:15.761Z,73.97
2022-09-12T02:03:51.078Z,73.87
2022-09-12T02:06:26.222Z,73.48
2022-09-12T02:08:59.632Z,73.81
2022-09-12T02:11:31.056Z,74.05
2022-09-12T02:14:05.863Z,73.78
2022-09-12T02:16:41.913Z,74.03
2022-09-12T02:19:16.886Z,73.69
2022-09-12T02:21:51.293Z,73.96
2022-09-12T02:24:23.286Z,73.55
2022-09-12T02:26:57.200Z,73.83
2022-09-12T02:29:26.638Z,73.98
2022-09-12T02:31:59.649Z,73.58
2022-09-12T02:34:41.539Z,74.25
2022-09-12T02:37:21.126Z,74.18
2022-09-12T02:39:50.758Z,73.66
2022-09-12T02:42:19.831Z,73.72
2022-09-12T02:44:49.062Z,73.99
2022-09-12T02:47:24.271Z,73.71
2022-09-12T02:49:55.506Z,74.07
2022-09-12T02:52:25.394Z,73.96
2022-09-12T02:54:55.881Z,73.50
2022-09-12T02:57:25.491Z,73.54
2022-09-12T02:59:57.039Z,73.91
2022-09-12T03:02:36.765Z,73.83
2022-09-12T03:05:19.933Z,74.23
2022-09-12T03:08:14.232Z,74.37
2022-09-12T03:10:56.572Z,74.08
2022-09-12T03:13:34.275Z,73.95
2022-09-12T03:16:16.838Z,73.75
2022-09-12T03:18:56.581Z,74.19
2022-09-12T03:21:34.224Z,74.45
2022-09-12T03:24:14.936Z,73.91
2022-09-12T03:26:49.395Z,74.21
2022-09-12T03:29:20.667Z,74.16
2022-09-12T03:31:54.707Z,74.07
2022-09-12T03:34:25.409Z,74.07
2022-09-12T03:36:56.530Z,74.36
2022-09-12T03:39:27.045Z,74.00
2022-09-12T03:41:57.142Z,74.26
2022-09-12T03:44:26.939Z,74.42
2022-09-12T03:46:56.313Z,74.50
2022-09-12T03:49:25.336Z,74.15
2022-09-12T03:51:56.020Z,73.94
2022-09-12T03:54:25.221Z,74.18
2022-09-12T03:56:54.209Z,73.97
2022-09-12T03:59:23.730Z,74.20
2022-09-12T04:01:52.900Z,74.62
2022-09-12T04:04:22.030Z,74.91
2022-09-12T04:06:51.440Z,74.25
2022-09-12T04:09:21.991Z,74.52
2022-09-12T04:11:51.157Z,74.80
2022-09-12T04:14:20.460Z,74.74
2022-09-12T04:16:49.474Z,74.63
2022-09-12T04:19:18.640Z,74.57
2022-09-12T04:21:47.841Z,74.51
2022-09-12T04:24:16.866Z,74.84
2022-09-12T04:26:47.300Z,74.80
2022-09-12T04:29:16.613Z,74.45
2022-09-12T04:31:46.075Z,74.63
2022-09-12T04:34:15.585Z,74.55
2022-09-12T04:36:44.938Z,74.49
2022-09-12T04:39:14.190Z,74.77
2022-09-12T04:41:43.271Z,74.79
2022-09-12T04:44:15.365Z,74.61
2022-09-12T04:46:45.910Z,75.01
2022-09-12T04:49:16.290Z,74.67
2022-09-12T04:51:45.535Z,74.63
2022-09-12T04:54:16.737Z,74.85
2022-09-12T04:56:50.003Z,74.87
2022-09-12T04:59:22.225Z,74.59
2022-09-12T05:01:52.152Z,74.65
2022-09-12T05:04:21.655Z,74.69
2022-09-12T05:06:50.781Z,74.63
2022-09-12T05:09:19.999Z,74.56
2022-09-12T05:12:05.523Z,74.46
2022-09-12T05:14:37.341Z,74.35
2022-09-12T05:17:07.095Z,74.70
2022-09-12T05:19:36.966Z,74.80
2022-09-12T05:22:06.724Z,74.66
2022-09-12T05:24:37.905Z,74.48
2022-09-12T05:27:07.495Z,74.79
2022-09-12T05:29:38.088Z,74.32
2022-09-12T05:32:07.306Z,74.85
2022-09-12T05:34:37.950Z,74.42
2022-09-12T05:37:07.114Z,74.62
2022-09-12T05:39:36.522Z,74.61
2022-09-12T05:42:06.565Z,74.65
2022-09-12T05:44:37.059Z,74.54
2022-09-12T05:47:06.650Z,74.25
2022-09-12T05:49:37.259Z,74.53
2022-09-12T05:52:06.340Z,74.29
2022-09-12T05:54:36.951Z,74.25
2022-09-12T05:57:06.333Z,74.06
2022-09-12T05:59:35.566Z,74.07
2022-09-12T06:02:06.281Z,73.67
2022-09-12T06:04:35.363Z,73.89
2022-09-12T06:07:04.773Z,73.93
2022-09-12T06:09:34.165Z,73.60
2022-09-12T06:12:03.456Z,73.32
2022-09-12T06:14:32.969Z,73.30
2022-09-12T06:17:02.576Z,73.24
2022-09-12T06:19:33.705Z,73.19
2022-09-12T06:22:02.842Z,73.03
2022-09-12T06:24:32.144Z,72.93
2022-09-12T06:27:02.402Z,72.75
2022-09-12T06:29:32.617Z,72.63
2022-09-12T06:32:01.976Z,72.66
2022-09-12T06:34:33.813Z,72.24
2022-09-12T06:37:04.044Z,71.93
2022-09-12T06:39:33.281Z,71.86
2022-09-12T06:42:02.334Z,71.89
2022-09-12T06:44:36.321Z,71.83
2022-09-12T06:47:05.569Z,71.83
2022-09-12T06:49:36.446Z,71.58
2022-09-12T06:52:07.321Z,71.60
2022-09-12T06:54:36.499Z,71.45
2022-09-12T06:57:05.659Z,71.22
2022-09-12T06:59:34.891Z,70.93
2022-09-12T07:02:04.069Z,70.76
2022-09-12T07:04:36.705Z,70.53
2022-09-12T07:07:07.529Z,70.40
2022-09-12T07:09:36.748Z,70.43
2022-09-12T07:12:06.326Z,69.75
2022-09-12T07:14:35.774Z,69.87
2022-09-12T07:17:05.010Z,69.79
2022-09-12T07:19:34.370Z,69.72
2022-09-12T07:22:04.339Z,69.71
2022-09-12T07:24:35.008Z,69.40
2022-09-12T07:27:04.530Z,69.42
2022-09-12T07:29:36.902Z,69.24
2022-09-12T07:32:08.096Z,68.98
2022-09-12T07:34:37.407Z,68.65
2022-09-12T07:37:07.454Z,68.37
2022-09-12T07:39:39.005Z,68.52
2022-09-12T07:42:08.583Z,68.55
2022-09-12T07:44:38.040Z,68.27
2022-09-12T07:47:07.605Z,68.37
2022-09-12T07:49:36.870Z,68.13
2022-09-12T07:52:06.486Z,67.92
2022-09-12T07:54:37.432Z,67.88
2022-09-12T07:57:07.077Z,67.60
2022-09-12T07:59:52.546Z,67.46
2022-09-12T08:02:22.458Z,66.68
2022-09-12T08:04:52.894Z,66.48
2022-09-12T08:07:21.975Z,66.20
2022-09-12T08:09:53.537Z,65.87
2022-09-12T08:12:23.006Z,65.36
2022-09-12T08:14:52.242Z,65.50
2022-09-12T08:17:22.047Z,64.94
2022-09-12T08:19:51.492Z,64.92
2022-09-12T08:22:22.028Z,64.58
2022-09-12T08:24:52.725Z,64.80
2022-09-12T08:27:22.120Z,64.81
2022-09-12T08:29:51.340Z,64.55
2022-09-12T08:32:20.594Z,64.26
2022-09-12T08:34:50.051Z,63.51
2022-09-12T08:37:19.423Z,63.29
2022-09-12T08:39:48.702Z,63.23
2022-09-12T08:42:29.091Z,62.52
2022-09-12T08:45:06.403Z,62.56
2022-09-12T08:47:39.961Z,62.21
2022-09-12T08:50:17.789Z,62.31
2022-09-12T08:52:58.534Z,62.33
2022-09-12T08:55:39.467Z,62.58
2022-09-12T08:58:17.131Z,62.71
2022-09-12T09:00:55.135Z,62.07
2022-09-12T09:03:51.879Z,61.86
2022-09-12T09:06:32.922Z,62.02
2022-09-12T09:09:11.992Z,60.90
2022-09-12T09:11:54.639Z,60.82
2022-09-12T09:14:50.878Z,60.67
2022-09-12T09:17:26.411Z,60.11
2022-09-12T09:20:03.347Z,59.99
2022-09-12T09:22:41.135Z,60.06
2022-09-12T09:25:22.864Z,60.00
2022-09-12T09:27:59.886Z,60.06
2022-09-12T09:30:31.912Z,59.89
2022-09-12T09:33:04.956Z,59.37
2022-09-12T09:35:43.570Z,59.41
2022-09-12T09:38:24.993Z,58.80
2022-09-12T09:41:08.391Z,58.83
2022-09-12T09:43:39.951Z,59.20
2022-09-12T09:46:11.952Z,59.08
2022-09-12T09:48:46.250Z,58.82
2022-09-12T09:51:17.775Z,59.01
2022-09-12T09:53:51.451Z,58.72
2022-09-12T09:56:31.694Z,58.63
2022-09-12T09:59:12.460Z,58.45
2022-09-12T10:01:49.410Z,58.20
2022-09-12T10:04:23.823Z,58.10
2022-09-12T10:06:55.491Z,58.09
2022-09-12T10:09:28.276Z,58.07
2022-09-12T10:11:58.853Z,58.28
2022-09-12T10:14:35.246Z,58.15
2022-09-12T10:17:25.524Z,58.00
2022-09-12T10:20:10.876Z,57.84
2022-09-12T10:22:50.226Z,57.84
2022-09-12T10:25:21.652Z,57.76
2022-09-12T10:27:57.297Z,57.62
2022-09-12T10:30:29.221Z,57.21
2022-09-12T10:33:08.366Z,56.66
2022-09-12T10:35:47.176Z,55.84
2022-09-12T10:38:22.916Z,55.67
2022-09-12T10:41:00.215Z,55.46
2022-09-12T10:43:35.755Z,55.37
2022-09-12T10:46:24.854Z,55.42
2022-09-12T10:49:21.169Z,55.24
2022-09-12T10:51:51.078Z,55.41
2022-09-12T10:54:21.586Z,55.38
2022-09-12T10:57:13.070Z,55.05
2022-09-12T11:00:05.311Z,54.51
2022-09-12T11:02:49.104Z,51.48
2022-09-12T11:05:36.879Z,46.66
2022-09-12T11:08:17.565Z,44.60
2022-09-12T11:10:54.504Z,45.75
2022-09-12T11:13:48.950Z,45.20
2022-09-12T11:16:29.726Z,46.18
2022-09-12T11:19:26.162Z,46.74
2022-09-12T11:22:21.313Z,47.02
2022-09-12T11:25:19.304Z,47.60
2022-09-12T11:28:08.685Z,47.87
2022-09-12T11:30:46.810Z,48.11
2022-09-12T11:33:32.842Z,48.23
2022-09-12T11:36:06.321Z,48.76
2022-09-12T11:38:53.681Z,48.93
2022-09-12T11:41:29.778Z,49.13
2022-09-12T11:44:06.018Z,49.22
2022-09-12T11:46:38.334Z,49.23
2022-09-12T11:49:18.483Z,49.25
2022-09-12T11:51:54.040Z,49.35
2022-09-12T11:54:30.791Z,49.48
2022-09-12T11:57:08.126Z,49.65
2022-09-12T11:59:53.919Z,49.33
2022-09-12T12:02:28.914Z,49.35
2022-09-12T12:05:06.809Z,49.24
2022-09-12T12:07:45.674Z,48.98
2022-09-12T12:10:35.718Z,48.94
2022-09-12T12:13:12.043Z,49.12
2022-09-12T12:15:49.587Z,49.07
2022-09-12T12:18:23.979Z,49.01
2022-09-12T12:20:54.658Z,48.86
2022-09-12T12:23:29.679Z,48.50
2022-09-12T12:26:02.291Z,48.33
2022-09-12T12:29:01.819Z,47.55
2022-09-12T12:31:58.170Z,47.71
2022-09-12T12:34:32.902Z,47.80
2022-09-12T12:37:40.871Z,47.56
2022-09-12T12:40:22.238Z,47.91
2022-09-12T12:43:31.621Z,47.83
2022-09-12T12:46:12.458Z,47.99
2022-09-12T12:49:08.459Z,47.78
2022-09-12T12:51:44.064Z,47.35
2022-09-12T12:54:32.474Z,47.32
2022-09-12T12:57:07.555Z,47.59
2022-09-12T12:59:38.503Z,47.46
2022-09-12T13:02:08.046Z,47.13
2022-09-12T13:04:37.884Z,47.57
2022-09-12T13:07:12.030Z,47.49
2022-09-12T13:09:47.223Z,47.49
2022-09-12T13:12:24.173Z,47.66
2022-09-12T13:14:58.446Z,47.55
2022-09-12T13:17:33.016Z,47.63
2022-09-12T13:20:28.435Z,47.59
2022-09-12T13:22:59.547Z,47.47
2022-09-12T13:25:31.815Z,47.44
2022-09-12T13:28:17.023Z,47.20
2022-09-12T13:30:56.090Z,46.98
2022-09-12T13:33:36.851Z,47.01
2022-09-12T13:36:34.678Z,47.14
2022-09-12T13:39:21.295Z,47.09
2022-09-12T13:42:23.904Z,47.09
2022-09-12T13:44:57.302Z,46.93
2022-09-12T13:47:34.037Z,46.92
2022-09-12T13:50:05.164Z,47.11
2022-09-12T13:52:36.907Z,47.05
2022-09-12T13:55:17.738Z,47.22
2022-09-12T13:57:47.188Z,46.97
2022-09-12T14:00:19.999Z,46.93
2022-09-12T14:03:12.294Z,46.88
2022-09-12T14:05:44.695Z,47.16
2022-09-12T14:08:15.640Z,47.10
2022-09-12T14:10:50.532Z,46.77
2022-09-12T14:13:22.827Z,47.24
2022-09-12T14:15:55.650Z,46.91
2022-09-12T14:18:29.992Z,46.51
2022-09-12T14:21:09.075Z,46.87
2022-09-12T14:23:42.630Z,47.21
2022-09-12T14:26:15.447Z,47.01
2022-09-12T14:28:47.483Z,47.38
2022-09-12T14:31:26.782Z,47.27
2022-09-12T14:34:09.677Z,47.04
2022-09-12T14:36:44.531Z,47.22
2022-09-12T14:39:25.760Z,47.04
2022-09-12T14:42:06.924Z,47.33
2022-09-12T14:44:37.081Z,47.51
2022-09-12T14:47:13.774Z,47.48
2022-09-12T14:49:44.866Z,47.55
2022-09-12T14:52:27.723Z,47.84
2022-09-12T14:54:58.940Z,47.98
2022-09-12T14:57:35.668Z,47.80
2022-09-12T15:00:20.439Z,47.88
2022-09-12T15:02:50.978Z,48.01
2022-09-12T15:05:25.325Z,48.14
2022-09-12T15:07:58.499Z,48.13
2022-09-12T15:10:31.505Z,48.24
2022-09-12T15:13:19.460Z,48.18
2022-09-12T15:15:51.497Z,48.34
2022-09-12T15:18:22.200Z,48.42
2022-09-12T15:20:56.192Z,48.36
2022-09-12T15:23:40.164Z,48.53
2022-09-12T15:26:11.484Z,48.53
2022-09-12T15:28:40.750Z,48.64
2022-09-12T15:31:16.941Z,48.65
2022-09-12T15:33:46.421Z,48.74
2022-09-12T15:36:20.231Z,48.92
2022-09-12T15:38:50.345Z,48.92
2022-09-12T15:41:20.399Z,49.25
2022-09-12T15:43:49.492Z,49.42
2022-09-12T15:46:20.353Z,49.68
2022-09-12T15:48:50.219Z,49.81
2022-09-12T15:51:21.824Z,50.11
2022-09-12T15:53:52.616Z,50.27
2022-09-12T15:56:23.779Z,50.74
2022-09-12T15:59:00.492Z,50.83
2022-09-12T16:01:31.129Z,51.17
2022-09-12T16:04:03.215Z,51.46
2022-09-12T16:06:47.690Z,51.69
2022-09-12T16:09:43.743Z,52.03
2022-09-12T16:12:13.398Z,52.29
2022-09-12T16:14:42.626Z,52.55
2022-09-12T16:17:12.981Z,52.97
2022-09-12T16:19:43.420Z,53.21
2022-09-12T16:22:14.869Z,53.43
2022-09-12T16:24:45.174Z,53.75
2022-09-12T16:27:14.655Z,54.24
2022-09-12T16:29:44.245Z,54.31
2022-09-12T16:32:13.815Z,54.61
2022-09-12T16:34:43.023Z,54.95
2022-09-12T16:37:13.778Z,55.07
2022-09-12T16:39:43.342Z,55.33
2022-09-12T16:42:12.784Z,55.61
2022-09-12T16:44:41.992Z,55.85
2022-09-12T16:47:11.732Z,56.04
2022-09-12T16:49:41.201Z,56.32
2022-09-12T16:52:12.673Z,56.74
2022-09-12T16:54:43.725Z,57.01
2022-09-12T16:57:13.225Z,57.40
2022-09-12T16:59:42.800Z,57.54
2022-09-12T17:02:14.443Z,57.90
2022-09-12T17:04:44.257Z,58.34
2022-09-12T17:07:13.479Z,58.45
2022-09-12T17:09:47.832Z,58.96
2022-09-12T17:12:17.489Z,59.27
2022-09-12T17:14:46.799Z,60.10
2022-09-12T17:17:16.135Z,61.13
2022-09-12T17:19:45.573Z,61.19
2022-09-12T17:22:14.774Z,60.93
2022-09-12T17:24:45.355Z,61.04
2022-09-12T17:27:17.328Z,60.61
2022-09-12T17:29:49.953Z,60.98
2022-09-12T17:32:22.261Z,61.02
2022-09-12T17:34:59.039Z,61.28
2022-09-12T17:37:28.735Z,61.24
2022-09-12T17:39:59.426Z,61.25
2022-09-12T17:42:45.232Z,61.44
2022-09-12T17:45:25.428Z,61.55
2022-09-12T17:47:55.322Z,62.29
2022-09-12T17:50:31.816Z,62.29
2022-09-12T17:53:12.179Z,62.06
2022-09-12T17:56:12.074Z,62.24
2022-09-12T17:58:46.107Z,62.35
2022-09-12T18:01:34.161Z,62.70
2022-09-12T18:04:04.102Z,63.56
2022-09-12T18:06:33.978Z,64.69
2022-09-12T18:09:12.682Z,64.19
2022-09-12T18:11:49.796Z,64.13
2022-09-12T18:14:30.192Z,63.49
2022-09-12T18:17:04.819Z,63.75
2022-09-12T18:19:41.633Z,64.86
2022-09-12T18:22:11.422Z,64.45
2022-09-12T18:24:41.376Z,65.39
2022-09-12T18:27:12.183Z,64.89
2022-09-12T18:29:41.674Z,64.80
2022-09-12T18:32:10.846Z,65.53
2022-09-12T18:34:40.056Z,66.01
2022-09-12T18:37:09.850Z,66.56
2022-09-12T18:39:40.382Z,68.26
2022-09-12T18:42:11.129Z,68.19
2022-09-12T18:44:40.491Z,69.01
2022-09-12T18:47:09.880Z,69.67
2022-09-12T18:49:39.190Z,69.07
2022-09-12T18:52:09.032Z,70.26
2022-09-12T18:54:38.554Z,69.69
2022-09-12T18:57:07.903Z,69.68
2022-09-12T18:59:38.882Z,68.64
2022-09-12T19:02:08.121Z,68.01
2022-09-12T19:04:37.367Z,68.21
2022-09-12T19:07:06.929Z,69.13
2022-09-12T19:09:36.182Z,70.07
2022-09-12T19:12:05.746Z,70.56
2022-09-12T19:14:35.439Z,70.49
2022-09-12T19:17:06.181Z,70.27
2022-09-12T19:19:39.951Z,70.38
2022-09-12T19:22:09.776Z,70.14
2022-09-12T19:24:39.830Z,70.38
2022-09-12T19:27:09.172Z,71.41
2022-09-12T19:29:38.471Z,70.93
2022-09-12T19:32:09.517Z,70.56
2022-09-12T19:34:38.733Z,70.20
2022-09-12T19:37:08.136Z,69.94
2022-09-12T19:39:37.840Z,69.73
2022-09-12T19:42:07.300Z,69.73
2022-09-12T19:44:36.518Z,70.85
2022-09-12T19:47:06.031Z,70.94
2022-09-12T19:49:38.824Z,71.26
2022-09-12T19:52:08.280Z,71.31
2022-09-12T19:54:37.519Z,71.52
2022-09-12T19:57:07.415Z,71.44
2022-09-12T19:59:36.825Z,71.59
2022-09-12T20:02:07.611Z,71.21
2022-09-12T20:04:39.128Z,71.54
2022-09-12T20:07:08.817Z,72.53
2022-09-12T20:09:38.070Z,72.47
2022-09-12T20:12:07.489Z,73.23
2022-09-12T20:14:38.095Z,73.02
2022-09-12T20:17:07.426Z,72.48
2022-09-12T20:19:38.733Z,73.20
2022-09-12T20:22:08.577Z,72.88
2022-09-12T20:24:38.458Z,72.90
2022-09-12T20:27:07.643Z,73.04
2022-09-12T20:29:37.051Z,73.07
2022-09-12T20:32:06.357Z,72.88
2022-09-12T20:34:37.053Z,72.70
2022-09-12T20:37:06.548Z,72.53
2022-09-12T20:39:35.798Z,72.56
2022-09-12T20:42:05.067Z,72.89
2022-09-12T20:44:34.541Z,72.91
2022-09-12T20:47:03.909Z,73.29
2022-09-12T20:49:33.082Z,73.38
2022-09-12T20:52:04.611Z,72.94
2022-09-12T20:54:33.851Z,72.98
2022-09-12T20:57:03.255Z,73.78
2022-09-12T20:59:32.544Z,73.75
2022-09-12T21:02:01.846Z,74.98
2022-09-12T21:04:31.365Z,75.64
2022-09-12T21:07:03.044Z,75.83
2022-09-12T21:09:32.429Z,76.16
2022-09-12T21:12:01.821Z,75.35
2022-09-12T21:14:31.026Z,75.42
2022-09-12T21:17:00.526Z,76.98
2022-09-12T21:19:30.250Z,76.87
2022-09-12T21:21:59.401Z,75.80
2022-09-12T21:24:30.355Z,76.23
2022-09-12T21:27:03.953Z,76.21
2022-09-12T21:29:33.967Z,75.38
2022-09-12T21:32:03.618Z,75.53
2022-09-12T21:34:32.794Z,75.58
2022-09-12T21:37:02.186Z,75.51
2022-09-12T21:39:32.823Z,75.41
2022-09-12T21:42:02.016Z,75.05
2022-09-12T21:44:31.399Z,75.01
2022-09-12T21:47:00.585Z,74.88
2022-09-12T21:49:29.805Z,74.91
2022-09-12T21:51:59.201Z,75.92
2022-09-12T21:54:28.448Z,76.79
2022-09-12T21:56:59.118Z,76.88
2022-09-12T21:59:28.592Z,75.95
2022-09-12T22:01:58.294Z,75.81
2022-09-12T22:04:27.564Z,75.13
2022-09-12T22:06:57.581Z,74.79
2022-09-12T22:09:26.778Z,74.73
2022-09-12T22:11:55.988Z,76.06
2022-09-12T22:14:26.979Z,77.80
2022-09-12T22:16:56.847Z,78.05
2022-09-12T22:19:26.366Z,78.54
2022-09-12T22:22:12.909Z,78.78
2022-09-12T22:24:42.350Z,80.54
2022-09-12T22:27:11.530Z,81.34
2022-09-12T22:29:43.102Z,81.49
2022-09-12T22:32:12.593Z,81.51
2022-09-12T22:34:41.884Z,81.12
2022-09-12T22:37:11.940Z,80.70
2022-09-12T22:39:41.486Z,80.85
2022-09-12T22:42:11.000Z,81.86
2022-09-12T22:44:41.631Z,81.53
2022-09-12T22:47:11.051Z,81.86
2022-09-12T22:49:40.329Z,81.91
2022-09-12T22:52:09.733Z,80.54
2022-09-12T22:54:38.968Z,81.04
2022-09-12T22:57:08.770Z,81.72
2022-09-12T22:59:38.416Z,82.20
2022-09-12T23:02:09.823Z,81.81
2022-09-12T23:04:39.071Z,81.69
2022-09-12T23:07:08.621Z,81.94
2022-09-12T23:09:37.864Z,82.01
2022-09-12T23:12:07.609Z,82.72
2022-09-12T23:14:36.836Z,83.04
2022-09-12T23:17:06.544Z,82.53
2022-09-12T23:19:37.356Z,82.05
2022-09-12T23:22:06.770Z,81.89
2022-09-12T23:24:37.568Z,82.41
2022-09-12T23:27:07.170Z,82.04
2022-09-12T23:29:36.751Z,81.73
2022-09-12T23:32:06.743Z,81.60
2022-09-12T23:34:37.415Z,81.64
2022-09-12T23:37:06.953Z,81.55
2022-09-12T23:39:36.522Z,80.87
2022-09-12T23:42:06.011Z,80.86
2022-09-12T23:44:35.373Z,80.59
2022-09-12T23:47:04.669Z,80.45
2022-09-12T23:49:33.938Z,80.33
2022-09-12T23:52:05.323Z,80.45
2022-09-12T23:54:35.555Z,80.57
2022-09-12T23:57:05.126Z,80.31
2022-09-12T23:59:34.392Z,80.45
